sensor_id;sensor_type;location;lat;lon;timestamp;P1;durP1;ratioP1;P2;durP2;ratioP2
74593;SDS011;63097;51.872;4.460;2023-03-14T00:00:58;13.55;;;1.52;;
74593;SDS011;63097;51.872;4.460;2023-03-14T00:03:23;11.25;;;1.20;;
74593;SDS011;63097;51.872;4.460;2023-03-14T00:05:48;17.30;;;1.27;;
74593;SDS011;63097;51.872;4.460;2023-03-14T00:08:14;14.10;;;1.30;;
74593;SDS011;63097;51.872;4.460;2023-03-14T00:10:39;8.85;;;1.15;;
74593;SDS011;63097;51.872;4.460;2023-03-14T00:13:04;12.70;;;1.17;;
74593;SDS011;63097;51.872;4.460;2023-03-14T00:15:31;6.40;;;1.00;;
74593;SDS011;63097;51.872;4.460;2023-03-14T00:17:58;7.20;;;1.00;;
74593;SDS011;63097;51.872;4.460;2023-03-14T00:20:23;10.70;;;1.42;;
74593;SDS011;63097;51.872;4.460;2023-03-14T00:22:48;9.05;;;0.95;;
74593;SDS011;63097;51.872;4.460;2023-03-14T00:25:13;11.05;;;2.17;;
74593;SDS011;63097;51.872;4.460;2023-03-14T00:27:39;7.95;;;1.23;;
74593;SDS011;63097;51.872;4.460;2023-03-14T00:30:05;8.05;;;1.15;;
74593;SDS011;63097;51.872;4.460;2023-03-14T00:32:31;11.52;;;1.38;;
74593;SDS011;63097;51.872;4.460;2023-03-14T00:34:56;11.40;;;1.42;;
74593;SDS011;63097;51.872;4.460;2023-03-14T00:37:21;1.92;;;0.80;;
74593;SDS011;63097;51.872;4.460;2023-03-14T00:39:47;9.48;;;1.05;;
74593;SDS011;63097;51.872;4.460;2023-03-14T00:42:12;11.40;;;1.55;;
74593;SDS011;63097;51.872;4.460;2023-03-14T00:44:37;12.88;;;1.30;;
74593;SDS011;63097;51.872;4.460;2023-03-14T00:47:03;9.88;;;1.02;;
74593;SDS011;63097;51.872;4.460;2023-03-14T00:49:28;8.50;;;1.20;;
74593;SDS011;63097;51.872;4.460;2023-03-14T00:51:53;5.90;;;1.38;;
74593;SDS011;63097;51.872;4.460;2023-03-14T00:54:19;11.60;;;1.27;;
74593;SDS011;63097;51.872;4.460;2023-03-14T00:56:45;13.02;;;1.05;;
74593;SDS011;63097;51.872;4.460;2023-03-14T00:59:10;9.45;;;0.95;;
74593;SDS011;63097;51.872;4.460;2023-03-14T01:01:35;10.95;;;1.00;;
74593;SDS011;63097;51.872;4.460;2023-03-14T01:04:01;17.58;;;0.98;;
74593;SDS011;63097;51.872;4.460;2023-03-14T01:06:27;16.63;;;1.40;;
74593;SDS011;63097;51.872;4.460;2023-03-14T01:08:53;11.20;;;1.00;;
74593;SDS011;63097;51.872;4.460;2023-03-14T01:11:22;11.07;;;1.00;;
74593;SDS011;63097;51.872;4.460;2023-03-14T01:13:49;11.25;;;1.48;;
74593;SDS011;63097;51.872;4.460;2023-03-14T01:16:16;11.48;;;1.02;;
74593;SDS011;63097;51.872;4.460;2023-03-14T01:18:42;10.68;;;0.98;;
74593;SDS011;63097;51.872;4.460;2023-03-14T01:21:10;4.97;;;0.93;;
74593;SDS011;63097;51.872;4.460;2023-03-14T01:23:38;14.27;;;1.65;;
74593;SDS011;63097;51.872;4.460;2023-03-14T01:26:03;14.13;;;1.13;;
74593;SDS011;63097;51.872;4.460;2023-03-14T01:28:29;2.55;;;0.63;;
74593;SDS011;63097;51.872;4.460;2023-03-14T01:30:54;13.40;;;1.25;;
74593;SDS011;63097;51.872;4.460;2023-03-14T01:33:19;6.05;;;0.80;;
74593;SDS011;63097;51.872;4.460;2023-03-14T01:35:45;7.38;;;1.08;;
74593;SDS011;63097;51.872;4.460;2023-03-14T01:38:10;9.25;;;0.85;;
74593;SDS011;63097;51.872;4.460;2023-03-14T01:40:41;17.00;;;1.45;;
74593;SDS011;63097;51.872;4.460;2023-03-14T01:43:17;15.57;;;1.48;;
74593;SDS011;63097;51.872;4.460;2023-03-14T01:46:30;10.88;;;1.15;;
74593;SDS011;63097;51.872;4.460;2023-03-14T01:51:12;10.52;;;1.00;;
74593;SDS011;63097;51.872;4.460;2023-03-14T01:54:00;9.38;;;0.60;;
74593;SDS011;63097;51.872;4.460;2023-03-14T01:56:31;10.85;;;1.20;;
74593;SDS011;63097;51.872;4.460;2023-03-14T01:58:57;5.05;;;0.52;;
74593;SDS011;63097;51.872;4.460;2023-03-14T02:01:24;5.88;;;0.95;;
74593;SDS011;63097;51.872;4.460;2023-03-14T02:03:54;9.02;;;0.90;;
74593;SDS011;63097;51.872;4.460;2023-03-14T02:06:24;11.65;;;0.80;;
74593;SDS011;63097;51.872;4.460;2023-03-14T02:08:53;4.03;;;1.10;;
74593;SDS011;63097;51.872;4.460;2023-03-14T02:11:19;5.35;;;0.82;;
74593;SDS011;63097;51.872;4.460;2023-03-14T02:13:45;2.50;;;0.40;;
74593;SDS011;63097;51.872;4.460;2023-03-14T02:16:11;8.68;;;1.58;;
74593;SDS011;63097;51.872;4.460;2023-03-14T02:18:37;10.38;;;1.10;;
74593;SDS011;63097;51.872;4.460;2023-03-14T02:23:44;8.18;;;1.15;;
74593;SDS011;63097;51.872;4.460;2023-03-14T02:26:40;7.25;;;1.02;;
74593;SDS011;63097;51.872;4.460;2023-03-14T02:29:06;9.88;;;1.25;;
74593;SDS011;63097;51.872;4.460;2023-03-14T02:31:32;6.40;;;1.00;;
74593;SDS011;63097;51.872;4.460;2023-03-14T02:33:58;9.20;;;1.05;;
74593;SDS011;63097;51.872;4.460;2023-03-14T02:36:24;5.57;;;1.20;;
74593;SDS011;63097;51.872;4.460;2023-03-14T02:38:55;12.07;;;1.13;;
74593;SDS011;63097;51.872;4.460;2023-03-14T02:41:32;4.75;;;1.10;;
74593;SDS011;63097;51.872;4.460;2023-03-14T02:43:57;5.03;;;1.00;;
74593;SDS011;63097;51.872;4.460;2023-03-14T02:46:22;9.88;;;1.25;;
74593;SDS011;63097;51.872;4.460;2023-03-14T02:48:49;7.75;;;0.90;;
74593;SDS011;63097;51.872;4.460;2023-03-14T02:51:19;3.53;;;0.95;;
74593;SDS011;63097;51.872;4.460;2023-03-14T02:53:46;5.07;;;0.95;;
74593;SDS011;63097;51.872;4.460;2023-03-14T02:56:11;12.70;;;1.00;;
74593;SDS011;63097;51.872;4.460;2023-03-14T02:58:37;16.05;;;1.70;;
74593;SDS011;63097;51.872;4.460;2023-03-14T03:01:03;11.05;;;1.13;;
74593;SDS011;63097;51.872;4.460;2023-03-14T03:03:28;7.45;;;1.20;;
74593;SDS011;63097;51.872;4.460;2023-03-14T03:05:54;8.23;;;1.23;;
74593;SDS011;63097;51.872;4.460;2023-03-14T03:08:21;5.50;;;1.13;;
74593;SDS011;63097;51.872;4.460;2023-03-14T03:10:48;10.88;;;1.67;;
74593;SDS011;63097;51.872;4.460;2023-03-14T03:13:14;8.57;;;1.50;;
74593;SDS011;63097;51.872;4.460;2023-03-14T03:15:40;5.63;;;1.00;;
74593;SDS011;63097;51.872;4.460;2023-03-14T03:18:05;7.63;;;1.60;;
74593;SDS011;63097;51.872;4.460;2023-03-14T03:20:31;10.50;;;1.20;;
74593;SDS011;63097;51.872;4.460;2023-03-14T03:22:56;17.92;;;1.75;;
74593;SDS011;63097;51.872;4.460;2023-03-14T03:25:21;5.28;;;1.27;;
74593;SDS011;63097;51.872;4.460;2023-03-14T03:27:46;10.98;;;1.17;;
74593;SDS011;63097;51.872;4.460;2023-03-14T03:30:12;13.20;;;1.40;;
74593;SDS011;63097;51.872;4.460;2023-03-14T03:32:37;18.38;;;1.95;;
74593;SDS011;63097;51.872;4.460;2023-03-14T03:35:03;12.23;;;1.60;;
74593;SDS011;63097;51.872;4.460;2023-03-14T03:37:32;16.02;;;1.60;;
74593;SDS011;63097;51.872;4.460;2023-03-14T03:39:59;6.85;;;1.48;;
74593;SDS011;63097;51.872;4.460;2023-03-14T03:42:25;7.13;;;0.80;;
74593;SDS011;63097;51.872;4.460;2023-03-14T03:44:52;6.80;;;1.08;;
74593;SDS011;63097;51.872;4.460;2023-03-14T03:47:17;10.20;;;1.55;;
74593;SDS011;63097;51.872;4.460;2023-03-14T03:49:42;9.70;;;1.13;;
74593;SDS011;63097;51.872;4.460;2023-03-14T03:52:08;11.05;;;1.48;;
74593;SDS011;63097;51.872;4.460;2023-03-14T03:54:33;6.63;;;0.65;;
74593;SDS011;63097;51.872;4.460;2023-03-14T03:56:58;6.47;;;1.42;;
74593;SDS011;63097;51.872;4.460;2023-03-14T03:59:24;6.80;;;1.23;;
74593;SDS011;63097;51.872;4.460;2023-03-14T04:01:49;4.38;;;0.73;;
74593;SDS011;63097;51.872;4.460;2023-03-14T04:04:14;10.90;;;1.13;;
74593;SDS011;63097;51.872;4.460;2023-03-14T04:06:40;8.07;;;1.20;;
74593;SDS011;63097;51.872;4.460;2023-03-14T04:09:05;3.80;;;0.75;;
74593;SDS011;63097;51.872;4.460;2023-03-14T04:11:30;8.73;;;1.15;;
74593;SDS011;63097;51.872;4.460;2023-03-14T04:13:56;6.97;;;1.33;;
74593;SDS011;63097;51.872;4.460;2023-03-14T04:16:22;7.95;;;1.02;;
74593;SDS011;63097;51.872;4.460;2023-03-14T04:18:49;4.82;;;1.00;;
74593;SDS011;63097;51.872;4.460;2023-03-14T04:21:15;4.47;;;1.17;;
74593;SDS011;63097;51.872;4.460;2023-03-14T04:23:41;15.02;;;1.13;;
74593;SDS011;63097;51.872;4.460;2023-03-14T04:26:06;7.85;;;1.10;;
74593;SDS011;63097;51.872;4.460;2023-03-14T04:28:31;16.42;;;1.65;;
74593;SDS011;63097;51.872;4.460;2023-03-14T04:30:57;14.40;;;1.17;;
74593;SDS011;63097;51.872;4.460;2023-03-14T04:33:22;5.38;;;0.80;;
74593;SDS011;63097;51.872;4.460;2023-03-14T04:35:48;4.07;;;0.90;;
74593;SDS011;63097;51.872;4.460;2023-03-14T04:38:13;6.40;;;0.80;;
74593;SDS011;63097;51.872;4.460;2023-03-14T04:40:39;5.85;;;0.73;;
74593;SDS011;63097;51.872;4.460;2023-03-14T04:43:05;5.22;;;1.95;;
74593;SDS011;63097;51.872;4.460;2023-03-14T04:45:31;4.18;;;0.73;;
74593;SDS011;63097;51.872;4.460;2023-03-14T04:47:56;5.05;;;1.00;;
74593;SDS011;63097;51.872;4.460;2023-03-14T04:50:22;3.70;;;0.95;;
74593;SDS011;63097;51.872;4.460;2023-03-14T04:52:47;12.05;;;1.13;;
74593;SDS011;63097;51.872;4.460;2023-03-14T04:55:12;3.78;;;1.00;;
74593;SDS011;63097;51.872;4.460;2023-03-14T04:57:38;4.05;;;0.80;;
74593;SDS011;63097;51.872;4.460;2023-03-14T05:00:04;7.38;;;1.05;;
74593;SDS011;63097;51.872;4.460;2023-03-14T05:02:30;5.93;;;1.75;;
74593;SDS011;63097;51.872;4.460;2023-03-14T05:04:55;4.35;;;0.88;;
74593;SDS011;63097;51.872;4.460;2023-03-14T05:07:20;10.38;;;1.38;;
74593;SDS011;63097;51.872;4.460;2023-03-14T05:09:46;1.80;;;0.70;;
74593;SDS011;63097;51.872;4.460;2023-03-14T05:12:11;11.57;;;1.13;;
74593;SDS011;63097;51.872;4.460;2023-03-14T05:14:36;10.07;;;1.55;;
74593;SDS011;63097;51.872;4.460;2023-03-14T05:17:01;5.80;;;1.05;;
74593;SDS011;63097;51.872;4.460;2023-03-14T05:19:27;6.30;;;1.60;;
74593;SDS011;63097;51.872;4.460;2023-03-14T05:21:52;8.57;;;1.58;;
74593;SDS011;63097;51.872;4.460;2023-03-14T05:24:17;11.80;;;1.40;;
74593;SDS011;63097;51.872;4.460;2023-03-14T05:26:43;5.22;;;1.70;;
74593;SDS011;63097;51.872;4.460;2023-03-14T05:29:08;6.18;;;0.98;;
74593;SDS011;63097;51.872;4.460;2023-03-14T05:31:33;6.95;;;1.23;;
74593;SDS011;63097;51.872;4.460;2023-03-14T05:33:59;9.70;;;1.60;;
74593;SDS011;63097;51.872;4.460;2023-03-14T05:36:24;8.63;;;1.83;;
74593;SDS011;63097;51.872;4.460;2023-03-14T05:38:49;5.80;;;2.30;;
74593;SDS011;63097;51.872;4.460;2023-03-14T05:41:14;9.93;;;1.05;;
74593;SDS011;63097;51.872;4.460;2023-03-14T05:43:40;8.40;;;0.77;;
74593;SDS011;63097;51.872;4.460;2023-03-14T05:46:05;3.38;;;0.40;;
74593;SDS011;63097;51.872;4.460;2023-03-14T05:48:30;4.55;;;0.60;;
74593;SDS011;63097;51.872;4.460;2023-03-14T05:50:56;4.97;;;0.60;;
74593;SDS011;63097;51.872;4.460;2023-03-14T05:53:22;7.55;;;0.40;;
74593;SDS011;63097;51.872;4.460;2023-03-14T05:55:50;6.70;;;0.68;;
74593;SDS011;63097;51.872;4.460;2023-03-14T05:58:19;3.85;;;0.40;;
74593;SDS011;63097;51.872;4.460;2023-03-14T06:00:44;7.38;;;0.75;;
74593;SDS011;63097;51.872;4.460;2023-03-14T06:03:09;6.60;;;0.75;;
74593;SDS011;63097;51.872;4.460;2023-03-14T06:05:35;9.88;;;0.85;;
74593;SDS011;63097;51.872;4.460;2023-03-14T06:08:00;3.25;;;0.30;;
74593;SDS011;63097;51.872;4.460;2023-03-14T06:10:26;7.47;;;1.23;;
74593;SDS011;63097;51.872;4.460;2023-03-14T06:12:51;7.47;;;0.63;;
74593;SDS011;63097;51.872;4.460;2023-03-14T06:15:16;2.22;;;0.65;;
74593;SDS011;63097;51.872;4.460;2023-03-14T06:17:42;8.88;;;1.23;;
74593;SDS011;63097;51.872;4.460;2023-03-14T06:20:07;7.30;;;0.85;;
74593;SDS011;63097;51.872;4.460;2023-03-14T06:22:34;4.15;;;0.70;;
74593;SDS011;63097;51.872;4.460;2023-03-14T06:24:59;6.18;;;0.70;;
74593;SDS011;63097;51.872;4.460;2023-03-14T06:27:24;6.60;;;0.57;;
74593;SDS011;63097;51.872;4.460;2023-03-14T06:29:50;2.50;;;0.68;;
74593;SDS011;63097;51.872;4.460;2023-03-14T06:32:15;5.65;;;0.85;;
74593;SDS011;63097;51.872;4.460;2023-03-14T06:34:40;4.13;;;0.43;;
74593;SDS011;63097;51.872;4.460;2023-03-14T06:37:06;2.72;;;0.35;;
74593;SDS011;63097;51.872;4.460;2023-03-14T06:39:31;2.97;;;0.68;;
74593;SDS011;63097;51.872;4.460;2023-03-14T06:41:56;10.15;;;0.70;;
74593;SDS011;63097;51.872;4.460;2023-03-14T06:44:22;7.63;;;0.50;;
74593;SDS011;63097;51.872;4.460;2023-03-14T06:46:47;2.67;;;0.47;;
74593;SDS011;63097;51.872;4.460;2023-03-14T06:49:12;0.20;;;0.20;;
74593;SDS011;63097;51.872;4.460;2023-03-14T06:51:38;2.97;;;0.43;;
74593;SDS011;63097;51.872;4.460;2023-03-14T06:54:03;10.23;;;0.75;;
74593;SDS011;63097;51.872;4.460;2023-03-14T06:56:29;10.55;;;0.93;;
74593;SDS011;63097;51.872;4.460;2023-03-14T06:58:54;10.68;;;1.08;;
74593;SDS011;63097;51.872;4.460;2023-03-14T07:01:20;9.57;;;0.85;;
74593;SDS011;63097;51.872;4.460;2023-03-14T07:03:50;3.83;;;0.43;;
74593;SDS011;63097;51.872;4.460;2023-03-14T07:06:15;4.47;;;0.70;;
74593;SDS011;63097;51.872;4.460;2023-03-14T07:08:41;8.43;;;1.00;;
74593;SDS011;63097;51.872;4.460;2023-03-14T07:11:06;8.85;;;0.80;;
74593;SDS011;63097;51.872;4.460;2023-03-14T07:13:31;3.53;;;0.30;;
74593;SDS011;63097;51.872;4.460;2023-03-14T07:15:57;3.78;;;0.40;;
74593;SDS011;63097;51.872;4.460;2023-03-14T07:18:22;8.05;;;0.85;;
74593;SDS011;63097;51.872;4.460;2023-03-14T07:20:47;8.30;;;0.98;;
74593;SDS011;63097;51.872;4.460;2023-03-14T07:23:13;8.00;;;1.00;;
74593;SDS011;63097;51.872;4.460;2023-03-14T07:25:38;6.00;;;1.10;;
74593;SDS011;63097;51.872;4.460;2023-03-14T07:28:03;12.70;;;1.75;;
74593;SDS011;63097;51.872;4.460;2023-03-14T07:30:29;8.18;;;1.15;;
74593;SDS011;63097;51.872;4.460;2023-03-14T07:32:54;3.17;;;0.70;;
74593;SDS011;63097;51.872;4.460;2023-03-14T07:35:19;6.47;;;1.02;;
74593;SDS011;63097;51.872;4.460;2023-03-14T07:37:45;9.32;;;1.42;;
74593;SDS011;63097;51.872;4.460;2023-03-14T07:40:10;5.45;;;1.00;;
74593;SDS011;63097;51.872;4.460;2023-03-14T07:42:36;6.22;;;0.80;;
74593;SDS011;63097;51.872;4.460;2023-03-14T07:45:01;9.25;;;0.85;;
74593;SDS011;63097;51.872;4.460;2023-03-14T07:47:26;5.38;;;1.10;;
74593;SDS011;63097;51.872;4.460;2023-03-14T07:49:51;2.63;;;0.52;;
74593;SDS011;63097;51.872;4.460;2023-03-14T07:52:17;4.57;;;0.50;;
74593;SDS011;63097;51.872;4.460;2023-03-14T07:54:42;4.75;;;0.55;;
74593;SDS011;63097;51.872;4.460;2023-03-14T07:57:07;4.78;;;0.50;;
74593;SDS011;63097;51.872;4.460;2023-03-14T07:59:33;5.75;;;0.80;;
74593;SDS011;63097;51.872;4.460;2023-03-14T08:01:58;10.65;;;0.70;;
74593;SDS011;63097;51.872;4.460;2023-03-14T08:04:23;6.93;;;0.90;;
74593;SDS011;63097;51.872;4.460;2023-03-14T08:06:49;2.58;;;0.70;;
74593;SDS011;63097;51.872;4.460;2023-03-14T08:09:14;6.57;;;0.63;;
74593;SDS011;63097;51.872;4.460;2023-03-14T08:11:39;9.95;;;0.77;;
74593;SDS011;63097;51.872;4.460;2023-03-14T08:14:04;11.52;;;0.80;;
74593;SDS011;63097;51.872;4.460;2023-03-14T08:16:30;6.63;;;0.68;;
74593;SDS011;63097;51.872;4.460;2023-03-14T08:18:55;2.70;;;0.52;;
74593;SDS011;63097;51.872;4.460;2023-03-14T08:21:20;6.38;;;1.17;;
74593;SDS011;63097;51.872;4.460;2023-03-14T08:23:46;1.27;;;0.40;;
74593;SDS011;63097;51.872;4.460;2023-03-14T08:26:11;5.93;;;0.55;;
74593;SDS011;63097;51.872;4.460;2023-03-14T08:28:36;1.02;;;0.30;;
74593;SDS011;63097;51.872;4.460;2023-03-14T08:31:02;8.48;;;0.60;;
74593;SDS011;63097;51.872;4.460;2023-03-14T08:33:28;3.03;;;0.68;;
74593;SDS011;63097;51.872;4.460;2023-03-14T08:35:54;1.80;;;0.60;;
74593;SDS011;63097;51.872;4.460;2023-03-14T08:38:23;10.80;;;0.77;;
74593;SDS011;63097;51.872;4.460;2023-03-14T08:40:48;9.57;;;1.00;;
74593;SDS011;63097;51.872;4.460;2023-03-14T08:43:14;11.93;;;0.73;;
74593;SDS011;63097;51.872;4.460;2023-03-14T08:45:39;4.20;;;0.60;;
74593;SDS011;63097;51.872;4.460;2023-03-14T08:48:04;6.75;;;0.95;;
74593;SDS011;63097;51.872;4.460;2023-03-14T08:50:30;6.20;;;0.60;;
74593;SDS011;63097;51.872;4.460;2023-03-14T08:52:55;14.88;;;1.80;;
74593;SDS011;63097;51.872;4.460;2023-03-14T08:55:20;5.80;;;0.73;;
74593;SDS011;63097;51.872;4.460;2023-03-14T08:57:46;9.23;;;0.60;;
74593;SDS011;63097;51.872;4.460;2023-03-14T09:00:11;4.85;;;0.82;;
74593;SDS011;63097;51.872;4.460;2023-03-14T09:02:37;8.80;;;0.85;;
74593;SDS011;63097;51.872;4.460;2023-03-14T09:05:02;3.38;;;0.80;;
74593;SDS011;63097;51.872;4.460;2023-03-14T09:07:28;6.38;;;0.65;;
74593;SDS011;63097;51.872;4.460;2023-03-14T09:09:53;6.57;;;0.80;;
74593;SDS011;63097;51.872;4.460;2023-03-14T09:12:19;9.65;;;1.23;;
74593;SDS011;63097;51.872;4.460;2023-03-14T09:14:44;10.60;;;0.88;;
74593;SDS011;63097;51.872;4.460;2023-03-14T09:17:09;9.48;;;0.93;;
74593;SDS011;63097;51.872;4.460;2023-03-14T09:19:35;4.40;;;0.70;;
74593;SDS011;63097;51.872;4.460;2023-03-14T09:22:00;8.98;;;0.85;;
74593;SDS011;63097;51.872;4.460;2023-03-14T09:24:25;9.43;;;0.93;;
74593;SDS011;63097;51.872;4.460;2023-03-14T09:26:51;16.02;;;1.05;;
74593;SDS011;63097;51.872;4.460;2023-03-14T09:29:16;9.90;;;1.38;;
74593;SDS011;63097;51.872;4.460;2023-03-14T09:31:41;13.80;;;1.27;;
74593;SDS011;63097;51.872;4.460;2023-03-14T09:34:07;6.85;;;0.80;;
74593;SDS011;63097;51.872;4.460;2023-03-14T09:36:32;19.30;;;1.70;;
74593;SDS011;63097;51.872;4.460;2023-03-14T09:38:57;18.58;;;1.88;;
74593;SDS011;63097;51.872;4.460;2023-03-14T09:41:24;20.90;;;1.58;;
74593;SDS011;63097;51.872;4.460;2023-03-14T09:43:53;10.57;;;1.15;;
74593;SDS011;63097;51.872;4.460;2023-03-14T09:46:29;22.15;;;2.13;;
74593;SDS011;63097;51.872;4.460;2023-03-14T09:48:56;19.20;;;1.92;;
74593;SDS011;63097;51.872;4.460;2023-03-14T09:51:22;14.23;;;1.70;;
74593;SDS011;63097;51.872;4.460;2023-03-14T09:53:48;18.13;;;2.05;;
74593;SDS011;63097;51.872;4.460;2023-03-14T09:56:18;21.15;;;2.33;;
74593;SDS011;63097;51.872;4.460;2023-03-14T10:01:17;17.08;;;1.45;;
74593;SDS011;63097;51.872;4.460;2023-03-14T10:03:47;12.48;;;1.27;;
74593;SDS011;63097;51.872;4.460;2023-03-14T10:06:14;5.47;;;0.60;;
74593;SDS011;63097;51.872;4.460;2023-03-14T10:08:43;11.15;;;1.67;;
74593;SDS011;63097;51.872;4.460;2023-03-14T10:11:19;23.00;;;2.63;;
74593;SDS011;63097;51.872;4.460;2023-03-14T10:16:13;13.85;;;2.40;;
74593;SDS011;63097;51.872;4.460;2023-03-14T10:18:38;12.60;;;1.58;;
74593;SDS011;63097;51.872;4.460;2023-03-14T10:21:28;21.23;;;1.92;;
74593;SDS011;63097;51.872;4.460;2023-03-14T10:24:06;12.63;;;2.00;;
74593;SDS011;63097;51.872;4.460;2023-03-14T10:26:44;19.55;;;2.67;;
74593;SDS011;63097;51.872;4.460;2023-03-14T10:29:13;20.00;;;2.45;;
74593;SDS011;63097;51.872;4.460;2023-03-14T10:34:24;23.30;;;2.72;;
74593;SDS011;63097;51.872;4.460;2023-03-14T10:36:52;14.93;;;1.55;;
74593;SDS011;63097;51.872;4.460;2023-03-14T10:42:27;13.73;;;1.85;;
74593;SDS011;63097;51.872;4.460;2023-03-14T10:44:56;26.08;;;2.60;;
74593;SDS011;63097;51.872;4.460;2023-03-14T10:47:24;19.33;;;2.58;;
74593;SDS011;63097;51.872;4.460;2023-03-14T10:49:51;23.27;;;2.10;;
74593;SDS011;63097;51.872;4.460;2023-03-14T10:54:49;10.07;;;1.98;;
74593;SDS011;63097;51.872;4.460;2023-03-14T10:57:20;30.27;;;3.15;;
74593;SDS011;63097;51.872;4.460;2023-03-14T10:59:45;20.88;;;2.20;;
74593;SDS011;63097;51.872;4.460;2023-03-14T11:04:56;23.30;;;2.45;;
74593;SDS011;63097;51.872;4.460;2023-03-14T11:07:44;18.55;;;2.50;;
74593;SDS011;63097;51.872;4.460;2023-03-14T11:13:19;19.63;;;1.98;;
74593;SDS011;63097;51.872;4.460;2023-03-14T11:15:53;13.30;;;1.77;;
74593;SDS011;63097;51.872;4.460;2023-03-14T11:21:00;22.48;;;2.53;;
74593;SDS011;63097;51.872;4.460;2023-03-14T11:29:07;14.48;;;1.50;;
74593;SDS011;63097;51.872;4.460;2023-03-14T11:31:40;10.27;;;1.35;;
74593;SDS011;63097;51.872;4.460;2023-03-14T11:36:42;9.55;;;1.50;;
74593;SDS011;63097;51.872;4.460;2023-03-14T11:39:16;15.00;;;1.48;;
74593;SDS011;63097;51.872;4.460;2023-03-14T11:41:44;11.93;;;2.35;;
74593;SDS011;63097;51.872;4.460;2023-03-14T11:46:52;5.90;;;1.33;;
74593;SDS011;63097;51.872;4.460;2023-03-14T11:51:57;8.30;;;0.93;;
74593;SDS011;63097;51.872;4.460;2023-03-14T11:54:46;7.50;;;1.00;;
74593;SDS011;63097;51.872;4.460;2023-03-14T11:57:16;8.35;;;1.13;;
74593;SDS011;63097;51.872;4.460;2023-03-14T11:59:59;7.93;;;1.00;;
74593;SDS011;63097;51.872;4.460;2023-03-14T12:10:39;20.95;;;2.03;;
74593;SDS011;63097;51.872;4.460;2023-03-14T12:13:39;9.40;;;1.17;;
74593;SDS011;63097;51.872;4.460;2023-03-14T12:16:06;21.08;;;1.75;;
74593;SDS011;63097;51.872;4.460;2023-03-14T12:18:44;10.23;;;1.02;;
74593;SDS011;63097;51.872;4.460;2023-03-14T12:21:10;3.67;;;0.73;;
74593;SDS011;63097;51.872;4.460;2023-03-14T12:28:37;8.10;;;1.92;;
74593;SDS011;63097;51.872;4.460;2023-03-14T12:34:03;8.13;;;1.27;;
74593;SDS011;63097;51.872;4.460;2023-03-14T12:44:57;9.02;;;1.00;;
74593;SDS011;63097;51.872;4.460;2023-03-14T12:47:49;10.55;;;1.38;;
74593;SDS011;63097;51.872;4.460;2023-03-14T12:50:24;12.23;;;1.52;;
74593;SDS011;63097;51.872;4.460;2023-03-14T12:58:14;12.40;;;1.23;;
74593;SDS011;63097;51.872;4.460;2023-03-14T13:00:56;15.20;;;1.25;;
74593;SDS011;63097;51.872;4.460;2023-03-14T13:03:26;9.90;;;1.05;;
74593;SDS011;63097;51.872;4.460;2023-03-14T13:06:01;9.23;;;0.90;;
74593;SDS011;63097;51.872;4.460;2023-03-14T13:08:35;20.00;;;1.55;;
74593;SDS011;63097;51.872;4.460;2023-03-14T13:11:10;11.43;;;0.95;;
74593;SDS011;63097;51.872;4.460;2023-03-14T13:13:45;7.47;;;0.88;;
74593;SDS011;63097;51.872;4.460;2023-03-14T13:16:18;3.87;;;0.70;;
74593;SDS011;63097;51.872;4.460;2023-03-14T13:18:46;13.38;;;0.90;;
74593;SDS011;63097;51.872;4.460;2023-03-14T13:21:44;7.18;;;0.80;;
74593;SDS011;63097;51.872;4.460;2023-03-14T13:24:20;6.55;;;0.60;;
74593;SDS011;63097;51.872;4.460;2023-03-14T13:26:51;3.45;;;0.47;;
74593;SDS011;63097;51.872;4.460;2023-03-14T13:29:20;10.43;;;0.77;;
74593;SDS011;63097;51.872;4.460;2023-03-14T13:32:22;3.85;;;0.60;;
74593;SDS011;63097;51.872;4.460;2023-03-14T13:34:47;13.20;;;1.48;;
74593;SDS011;63097;51.872;4.460;2023-03-14T13:37:20;7.75;;;0.75;;
74593;SDS011;63097;51.872;4.460;2023-03-14T13:39:50;12.10;;;1.00;;
74593;SDS011;63097;51.872;4.460;2023-03-14T13:42:17;16.63;;;1.15;;
74593;SDS011;63097;51.872;4.460;2023-03-14T13:44:43;6.20;;;0.80;;
74593;SDS011;63097;51.872;4.460;2023-03-14T13:47:11;8.15;;;1.15;;
74593;SDS011;63097;51.872;4.460;2023-03-14T13:49:41;7.20;;;1.17;;
74593;SDS011;63097;51.872;4.460;2023-03-14T13:54:53;5.53;;;0.73;;
74593;SDS011;63097;51.872;4.460;2023-03-14T13:57:20;8.82;;;1.05;;
74593;SDS011;63097;51.872;4.460;2023-03-14T13:59:45;12.73;;;1.38;;
74593;SDS011;63097;51.872;4.460;2023-03-14T14:02:33;10.10;;;1.15;;
74593;SDS011;63097;51.872;4.460;2023-03-14T14:05:00;10.30;;;0.75;;
74593;SDS011;63097;51.872;4.460;2023-03-14T14:07:26;9.30;;;0.80;;
74593;SDS011;63097;51.872;4.460;2023-03-14T14:09:52;12.18;;;0.80;;
74593;SDS011;63097;51.872;4.460;2023-03-14T14:17:38;7.88;;;0.93;;
74593;SDS011;63097;51.872;4.460;2023-03-14T14:20:14;6.40;;;0.80;;
74593;SDS011;63097;51.872;4.460;2023-03-14T14:22:53;2.72;;;0.60;;
74593;SDS011;63097;51.872;4.460;2023-03-14T14:25:18;13.93;;;1.15;;
74593;SDS011;63097;51.872;4.460;2023-03-14T14:27:46;3.70;;;0.68;;
74593;SDS011;63097;51.872;4.460;2023-03-14T14:32:41;8.13;;;0.68;;
74593;SDS011;63097;51.872;4.460;2023-03-14T14:35:08;8.23;;;0.85;;
74593;SDS011;63097;51.872;4.460;2023-03-14T14:37:42;7.95;;;0.88;;
74593;SDS011;63097;51.872;4.460;2023-03-14T14:40:19;8.70;;;0.70;;
74593;SDS011;63097;51.872;4.460;2023-03-14T14:42:47;11.32;;;0.60;;
74593;SDS011;63097;51.872;4.460;2023-03-14T14:45:14;7.60;;;0.93;;
74593;SDS011;63097;51.872;4.460;2023-03-14T14:48:02;8.35;;;0.68;;
74593;SDS011;63097;51.872;4.460;2023-03-14T14:53:23;7.57;;;1.13;;
74593;SDS011;63097;51.872;4.460;2023-03-14T14:55:53;11.13;;;1.33;;
74593;SDS011;63097;51.872;4.460;2023-03-14T14:58:28;8.70;;;0.63;;
74593;SDS011;63097;51.872;4.460;2023-03-14T15:01:05;10.00;;;1.17;;
74593;SDS011;63097;51.872;4.460;2023-03-14T15:03:35;8.85;;;1.25;;
74593;SDS011;63097;51.872;4.460;2023-03-14T15:06:02;11.35;;;0.80;;
74593;SDS011;63097;51.872;4.460;2023-03-14T15:08:28;5.15;;;0.75;;
74593;SDS011;63097;51.872;4.460;2023-03-14T15:10:54;14.15;;;0.82;;
74593;SDS011;63097;51.872;4.460;2023-03-14T15:13:20;10.60;;;0.80;;
74593;SDS011;63097;51.872;4.460;2023-03-14T15:15:45;5.75;;;0.50;;
74593;SDS011;63097;51.872;4.460;2023-03-14T15:18:12;5.97;;;0.93;;
74593;SDS011;63097;51.872;4.460;2023-03-14T15:20:39;4.25;;;0.50;;
74593;SDS011;63097;51.872;4.460;2023-03-14T15:23:15;7.85;;;1.35;;
74593;SDS011;63097;51.872;4.460;2023-03-14T15:25:42;10.82;;;0.88;;
74593;SDS011;63097;51.872;4.460;2023-03-14T15:28:11;9.15;;;0.77;;
74593;SDS011;63097;51.872;4.460;2023-03-14T15:30:39;10.13;;;1.15;;
74593;SDS011;63097;51.872;4.460;2023-03-14T15:33:05;6.22;;;0.85;;
74593;SDS011;63097;51.872;4.460;2023-03-14T15:35:30;5.75;;;0.73;;
74593;SDS011;63097;51.872;4.460;2023-03-14T15:37:55;3.58;;;0.60;;
74593;SDS011;63097;51.872;4.460;2023-03-14T15:40:21;3.38;;;0.70;;
74593;SDS011;63097;51.872;4.460;2023-03-14T15:42:49;9.25;;;0.43;;
74593;SDS011;63097;51.872;4.460;2023-03-14T15:45:14;6.07;;;0.85;;
74593;SDS011;63097;51.872;4.460;2023-03-14T15:47:40;3.42;;;0.57;;
74593;SDS011;63097;51.872;4.460;2023-03-14T15:50:05;7.80;;;0.85;;
74593;SDS011;63097;51.872;4.460;2023-03-14T15:52:31;1.67;;;0.32;;
74593;SDS011;63097;51.872;4.460;2023-03-14T15:54:56;7.85;;;0.88;;
74593;SDS011;63097;51.872;4.460;2023-03-14T15:57:21;4.30;;;0.65;;
74593;SDS011;63097;51.872;4.460;2023-03-14T15:59:46;11.90;;;0.90;;
74593;SDS011;63097;51.872;4.460;2023-03-14T16:02:12;7.28;;;1.20;;
74593;SDS011;63097;51.872;4.460;2023-03-14T16:04:37;11.65;;;1.25;;
74593;SDS011;63097;51.872;4.460;2023-03-14T16:07:02;6.13;;;0.75;;
74593;SDS011;63097;51.872;4.460;2023-03-14T16:09:28;23.13;;;1.13;;